KMEI/MEI METAR and TAF weather

Enter ICAO airport designator
Station Type Date Time Source
KMEI METAR 2019/02/21 15:58 UTC NOAA

KMEI 211558Z 05006KT 10SM OVC006 12/10 A3009 RMK AO2 SLP188 I1000 T01220100


Station Type Date Time Source
KMEI Decoded METAR 2019/02/21 15:58 UTC NOAA

MERIDIAN KEY FIELD, MS, United States (KMEI) 32-20N 088-45W 89M
Feb 21, 2019 - 10:58 AM EST / 2019.02.21 1558 UTC
Wind: from the NE (050 degrees) at 7 MPH (6 KT):0
Visibility: 10 mile(s):0
Sky conditions: overcast
Temperature: 54.0 F (12.2 C)
Dew Point: 50.0 F (10.0 C)
Relative Humidity: 86%
Pressure (altimeter): 30.09 in. Hg (1018 hPa)
ob: KMEI 211558Z 05006KT 10SM OVC006 12/10 A3009 RMK AO2 SLP188 I1000 T01220100
cycle: 16

Station Type Date Time Source
KMEI TAF 2019/02/21 12:57 UTC NOAA

TAF KMEI 211155Z 2112/2212 02006KT P6SM VCSH BKN007 OVC015
FM220000 05010KT 6SM SHRA BR BKN008 OVC015


Example: see airport list